sensor_id;sensor_type;location;lat;lon;timestamp;temperature;humidity
4312;DHT22;2169;49.086;9.284;2023-06-14T00:01:58;19.30;32.10
4312;DHT22;2169;49.086;9.284;2023-06-14T00:04:25;19.30;32.10
4312;DHT22;2169;49.086;9.284;2023-06-14T00:06:51;19.30;32.10
4312;DHT22;2169;49.086;9.284;2023-06-14T00:09:19;19.30;32.10
4312;DHT22;2169;49.086;9.284;2023-06-14T00:11:46;19.30;32.10
4312;DHT22;2169;49.086;9.284;2023-06-14T00:14:13;19.30;32.10
4312;DHT22;2169;49.086;9.284;2023-06-14T00:16:40;19.20;32.00
4312;DHT22;2169;49.086;9.284;2023-06-14T00:19:08;19.20;32.00
4312;DHT22;2169;49.086;9.284;2023-06-14T00:21:35;19.20;32.00
4312;DHT22;2169;49.086;9.284;2023-06-14T00:24:04;19.20;32.00
4312;DHT22;2169;49.086;9.284;2023-06-14T00:26:32;19.20;32.00
4312;DHT22;2169;49.086;9.284;2023-06-14T00:28:59;19.20;32.10
4312;DHT22;2169;49.086;9.284;2023-06-14T00:31:25;19.20;32.10
4312;DHT22;2169;49.086;9.284;2023-06-14T00:33:52;19.20;32.10
4312;DHT22;2169;49.086;9.284;2023-06-14T00:36:19;19.10;32.10
4312;DHT22;2169;49.086;9.284;2023-06-14T00:38:46;19.10;32.20
4312;DHT22;2169;49.086;9.284;2023-06-14T00:41:13;19.10;32.20
4312;DHT22;2169;49.086;9.284;2023-06-14T00:43:41;19.00;32.20
4312;DHT22;2169;49.086;9.284;2023-06-14T00:46:07;19.00;32.30
4312;DHT22;2169;49.086;9.284;2023-06-14T00:48:35;19.00;32.40
4312;DHT22;2169;49.086;9.284;2023-06-14T00:51:03;18.90;32.30
4312;DHT22;2169;49.086;9.284;2023-06-14T00:53:30;18.90;32.30
4312;DHT22;2169;49.086;9.284;2023-06-14T00:56:00;18.90;32.40
4312;DHT22;2169;49.086;9.284;2023-06-14T00:58:27;18.90;32.30
4312;DHT22;2169;49.086;9.284;2023-06-14T01:00:56;18.90;32.30
4312;DHT22;2169;49.086;9.284;2023-06-14T01:03:23;18.90;32.30
4312;DHT22;2169;49.086;9.284;2023-06-14T01:05:56;18.90;32.30
4312;DHT22;2169;49.086;9.284;2023-06-14T01:08:34;18.90;32.30
4312;DHT22;2169;49.086;9.284;2023-06-14T01:11:09;18.90;32.30
4312;DHT22;2169;49.086;9.284;2023-06-14T01:13:40;18.90;32.30
4312;DHT22;2169;49.086;9.284;2023-06-14T01:16:10;18.90;33.10
4312;DHT22;2169;49.086;9.284;2023-06-14T01:18:38;18.80;32.30
4312;DHT22;2169;49.086;9.284;2023-06-14T01:21:20;18.80;32.40
4312;DHT22;2169;49.086;9.284;2023-06-14T01:23:48;18.80;32.50
4312;DHT22;2169;49.086;9.284;2023-06-14T01:26:18;18.70;32.50
4312;DHT22;2169;49.086;9.284;2023-06-14T01:28:45;18.70;32.50
4312;DHT22;2169;49.086;9.284;2023-06-14T01:31:19;18.70;32.50
4312;DHT22;2169;49.086;9.284;2023-06-14T01:33:48;18.70;32.60
4312;DHT22;2169;49.086;9.284;2023-06-14T01:36:17;18.60;32.50
4312;DHT22;2169;49.086;9.284;2023-06-14T01:38:45;18.70;32.60
4312;DHT22;2169;49.086;9.284;2023-06-14T01:41:15;18.60;32.70
4312;DHT22;2169;49.086;9.284;2023-06-14T01:43:42;18.60;32.70
4312;DHT22;2169;49.086;9.284;2023-06-14T01:46:10;18.60;32.80
4312;DHT22;2169;49.086;9.284;2023-06-14T01:48:37;18.50;32.70
4312;DHT22;2169;49.086;9.284;2023-06-14T01:51:04;18.50;32.70
4312;DHT22;2169;49.086;9.284;2023-06-14T01:53:30;18.50;32.80
4312;DHT22;2169;49.086;9.284;2023-06-14T01:55:57;18.50;32.90
4312;DHT22;2169;49.086;9.284;2023-06-14T01:58:25;18.40;32.90
4312;DHT22;2169;49.086;9.284;2023-06-14T02:00:52;18.40;33.00
4312;DHT22;2169;49.086;9.284;2023-06-14T02:03:20;18.40;33.20
4312;DHT22;2169;49.086;9.284;2023-06-14T02:05:48;18.40;33.40
4312;DHT22;2169;49.086;9.284;2023-06-14T02:08:15;18.40;33.60
4312;DHT22;2169;49.086;9.284;2023-06-14T02:10:42;18.30;33.80
4312;DHT22;2169;49.086;9.284;2023-06-14T02:13:09;18.30;34.00
4312;DHT22;2169;49.086;9.284;2023-06-14T02:15:37;18.30;34.20
4312;DHT22;2169;49.086;9.284;2023-06-14T02:18:04;18.20;34.30
4312;DHT22;2169;49.086;9.284;2023-06-14T02:20:31;18.20;34.50
4312;DHT22;2169;49.086;9.284;2023-06-14T02:22:58;18.10;34.60
4312;DHT22;2169;49.086;9.284;2023-06-14T02:25:24;18.00;34.70
4312;DHT22;2169;49.086;9.284;2023-06-14T02:27:53;17.90;34.70
4312;DHT22;2169;49.086;9.284;2023-06-14T02:30:20;17.90;35.00
4312;DHT22;2169;49.086;9.284;2023-06-14T02:32:48;17.80;35.20
4312;DHT22;2169;49.086;9.284;2023-06-14T02:35:16;17.70;35.30
4312;DHT22;2169;49.086;9.284;2023-06-14T02:37:43;17.60;35.50
4312;DHT22;2169;49.086;9.284;2023-06-14T02:40:11;17.60;35.60
4312;DHT22;2169;49.086;9.284;2023-06-14T02:42:37;17.60;35.70
4312;DHT22;2169;49.086;9.284;2023-06-14T02:45:05;17.50;35.80
4312;DHT22;2169;49.086;9.284;2023-06-14T02:47:32;17.40;35.90
4312;DHT22;2169;49.086;9.284;2023-06-14T02:50:00;17.40;36.10
4312;DHT22;2169;49.086;9.284;2023-06-14T02:52:28;17.40;36.20
4312;DHT22;2169;49.086;9.284;2023-06-14T02:54:54;17.30;36.30
4312;DHT22;2169;49.086;9.284;2023-06-14T02:57:22;17.30;36.40
4312;DHT22;2169;49.086;9.284;2023-06-14T02:59:48;17.30;36.50
4312;DHT22;2169;49.086;9.284;2023-06-14T03:02:15;17.20;36.60
4312;DHT22;2169;49.086;9.284;2023-06-14T03:04:42;17.10;36.70
4312;DHT22;2169;49.086;9.284;2023-06-14T03:07:11;17.10;36.80
4312;DHT22;2169;49.086;9.284;2023-06-14T03:09:39;17.10;36.90
4312;DHT22;2169;49.086;9.284;2023-06-14T03:12:06;17.00;36.90
4312;DHT22;2169;49.086;9.284;2023-06-14T03:14:35;17.00;37.10
4312;DHT22;2169;49.086;9.284;2023-06-14T03:17:02;16.90;37.30
4312;DHT22;2169;49.086;9.284;2023-06-14T03:19:30;16.80;37.40
4312;DHT22;2169;49.086;9.284;2023-06-14T03:21:57;16.70;37.50
4312;DHT22;2169;49.086;9.284;2023-06-14T03:24:25;16.70;37.70
4312;DHT22;2169;49.086;9.284;2023-06-14T03:26:54;16.60;37.80
4312;DHT22;2169;49.086;9.284;2023-06-14T03:29:20;16.60;37.90
4312;DHT22;2169;49.086;9.284;2023-06-14T03:31:57;16.50;38.00
4312;DHT22;2169;49.086;9.284;2023-06-14T03:34:24;16.50;38.10
4312;DHT22;2169;49.086;9.284;2023-06-14T03:36:51;16.50;38.10
4312;DHT22;2169;49.086;9.284;2023-06-14T03:39:18;16.50;38.10
4312;DHT22;2169;49.086;9.284;2023-06-14T03:41:46;16.50;38.00
4312;DHT22;2169;49.086;9.284;2023-06-14T03:44:15;16.50;38.00
4312;DHT22;2169;49.086;9.284;2023-06-14T03:46:42;16.50;38.10
4312;DHT22;2169;49.086;9.284;2023-06-14T03:49:09;16.50;38.10
4312;DHT22;2169;49.086;9.284;2023-06-14T03:51:37;16.50;38.20
4312;DHT22;2169;49.086;9.284;2023-06-14T03:54:05;16.50;38.30
4312;DHT22;2169;49.086;9.284;2023-06-14T03:56:32;16.50;38.30
4312;DHT22;2169;49.086;9.284;2023-06-14T03:59:00;16.50;38.50
4312;DHT22;2169;49.086;9.284;2023-06-14T04:01:27;16.50;38.70
4312;DHT22;2169;49.086;9.284;2023-06-14T04:03:55;16.50;38.70
4312;DHT22;2169;49.086;9.284;2023-06-14T04:06:23;16.50;38.80
4312;DHT22;2169;49.086;9.284;2023-06-14T04:08:58;16.50;38.90
4312;DHT22;2169;49.086;9.284;2023-06-14T04:11:28;16.50;38.90
4312;DHT22;2169;49.086;9.284;2023-06-14T04:13:55;16.50;39.00
4312;DHT22;2169;49.086;9.284;2023-06-14T04:16:23;16.60;39.20
4312;DHT22;2169;49.086;9.284;2023-06-14T04:18:50;16.50;39.30
4312;DHT22;2169;49.086;9.284;2023-06-14T04:21:18;16.60;39.50
4312;DHT22;2169;49.086;9.284;2023-06-14T04:23:44;16.60;39.70
4312;DHT22;2169;49.086;9.284;2023-06-14T04:26:11;16.60;39.80
4312;DHT22;2169;49.086;9.284;2023-06-14T04:28:38;16.60;40.00
4312;DHT22;2169;49.086;9.284;2023-06-14T04:31:06;16.50;40.00
4312;DHT22;2169;49.086;9.284;2023-06-14T04:33:35;16.50;40.20
4312;DHT22;2169;49.086;9.284;2023-06-14T04:36:08;16.60;40.50
4312;DHT22;2169;49.086;9.284;2023-06-14T04:38:35;16.50;40.50
4312;DHT22;2169;49.086;9.284;2023-06-14T04:41:02;16.50;40.60
4312;DHT22;2169;49.086;9.284;2023-06-14T04:43:28;16.50;40.70
4312;DHT22;2169;49.086;9.284;2023-06-14T04:45:57;16.60;40.80
4312;DHT22;2169;49.086;9.284;2023-06-14T04:48:24;16.50;41.00
4312;DHT22;2169;49.086;9.284;2023-06-14T04:50:52;16.50;41.00
4312;DHT22;2169;49.086;9.284;2023-06-14T04:53:20;16.50;41.10
4312;DHT22;2169;49.086;9.284;2023-06-14T04:55:48;16.50;41.20
4312;DHT22;2169;49.086;9.284;2023-06-14T04:58:16;16.50;41.30
4312;DHT22;2169;49.086;9.284;2023-06-14T05:00:42;16.50;41.40
4312;DHT22;2169;49.086;9.284;2023-06-14T05:03:09;16.60;41.60
4312;DHT22;2169;49.086;9.284;2023-06-14T05:05:39;16.60;41.70
4312;DHT22;2169;49.086;9.284;2023-06-14T05:08:08;16.50;41.70
4312;DHT22;2169;49.086;9.284;2023-06-14T05:10:35;16.60;41.90
4312;DHT22;2169;49.086;9.284;2023-06-14T05:13:01;16.60;42.00
4312;DHT22;2169;49.086;9.284;2023-06-14T05:15:28;16.60;41.90
4312;DHT22;2169;49.086;9.284;2023-06-14T05:17:55;16.60;42.00
4312;DHT22;2169;49.086;9.284;2023-06-14T05:20:22;16.70;42.20
4312;DHT22;2169;49.086;9.284;2023-06-14T05:22:50;16.60;42.10
4312;DHT22;2169;49.086;9.284;2023-06-14T05:25:19;16.70;42.20
4312;DHT22;2169;49.086;9.284;2023-06-14T05:27:46;16.70;42.20
4312;DHT22;2169;49.086;9.284;2023-06-14T05:30:14;16.70;42.20
4312;DHT22;2169;49.086;9.284;2023-06-14T05:32:41;16.70;42.30
4312;DHT22;2169;49.086;9.284;2023-06-14T05:35:08;16.80;42.50
4312;DHT22;2169;49.086;9.284;2023-06-14T05:37:35;16.80;42.50
4312;DHT22;2169;49.086;9.284;2023-06-14T05:40:02;16.90;42.70
4312;DHT22;2169;49.086;9.284;2023-06-14T05:42:32;16.90;42.80
4312;DHT22;2169;49.086;9.284;2023-06-14T05:44:59;17.00;42.90
4312;DHT22;2169;49.086;9.284;2023-06-14T05:47:26;17.10;43.00
4312;DHT22;2169;49.086;9.284;2023-06-14T05:49:53;17.10;43.10
4312;DHT22;2169;49.086;9.284;2023-06-14T05:52:20;17.20;43.00
4312;DHT22;2169;49.086;9.284;2023-06-14T05:54:47;17.30;43.10
4312;DHT22;2169;49.086;9.284;2023-06-14T05:57:14;17.50;43.80
4312;DHT22;2169;49.086;9.284;2023-06-14T05:59:42;17.60;43.10
4312;DHT22;2169;49.086;9.284;2023-06-14T06:02:09;17.60;43.10
4312;DHT22;2169;49.086;9.284;2023-06-14T06:04:36;17.80;43.10
4312;DHT22;2169;49.086;9.284;2023-06-14T06:07:03;17.90;43.10
4312;DHT22;2169;49.086;9.284;2023-06-14T06:09:30;18.00;43.10
4312;DHT22;2169;49.086;9.284;2023-06-14T06:11:57;18.10;43.10
4312;DHT22;2169;49.086;9.284;2023-06-14T06:14:24;18.20;43.00
4312;DHT22;2169;49.086;9.284;2023-06-14T06:16:52;18.30;43.10
4312;DHT22;2169;49.086;9.284;2023-06-14T06:19:19;18.40;43.00
4312;DHT22;2169;49.086;9.284;2023-06-14T06:21:45;18.60;43.00
4312;DHT22;2169;49.086;9.284;2023-06-14T06:24:13;18.70;42.90
4312;DHT22;2169;49.086;9.284;2023-06-14T06:26:39;18.80;42.80
4312;DHT22;2169;49.086;9.284;2023-06-14T06:29:06;18.90;42.80
4312;DHT22;2169;49.086;9.284;2023-06-14T06:31:33;19.00;42.70
4312;DHT22;2169;49.086;9.284;2023-06-14T06:34:01;19.10;43.30
4312;DHT22;2169;49.086;9.284;2023-06-14T06:36:28;19.30;42.60
4312;DHT22;2169;49.086;9.284;2023-06-14T06:38:55;19.40;42.50
4312;DHT22;2169;49.086;9.284;2023-06-14T06:41:21;19.50;42.30
4312;DHT22;2169;49.086;9.284;2023-06-14T06:43:48;19.60;42.20
4312;DHT22;2169;49.086;9.284;2023-06-14T06:46:15;19.80;42.00
4312;DHT22;2169;49.086;9.284;2023-06-14T06:48:43;19.90;41.90
4312;DHT22;2169;49.086;9.284;2023-06-14T06:51:11;20.10;41.70
4312;DHT22;2169;49.086;9.284;2023-06-14T06:53:41;20.20;41.60
4312;DHT22;2169;49.086;9.284;2023-06-14T06:56:08;20.30;41.30
4312;DHT22;2169;49.086;9.284;2023-06-14T06:58:35;20.50;41.20
4312;DHT22;2169;49.086;9.284;2023-06-14T07:01:02;20.50;41.00
4312;DHT22;2169;49.086;9.284;2023-06-14T07:03:28;20.70;40.90
4312;DHT22;2169;49.086;9.284;2023-06-14T07:05:55;20.80;40.80
4312;DHT22;2169;49.086;9.284;2023-06-14T07:08:23;20.90;40.40
4312;DHT22;2169;49.086;9.284;2023-06-14T07:10:50;21.00;40.40
4312;DHT22;2169;49.086;9.284;2023-06-14T07:13:17;21.10;40.30
4312;DHT22;2169;49.086;9.284;2023-06-14T07:15:44;21.20;40.20
4312;DHT22;2169;49.086;9.284;2023-06-14T07:18:11;21.30;40.20
4312;DHT22;2169;49.086;9.284;2023-06-14T07:20:38;21.40;40.10
4312;DHT22;2169;49.086;9.284;2023-06-14T07:23:05;21.60;39.90
4312;DHT22;2169;49.086;9.284;2023-06-14T07:25:34;21.70;39.70
4312;DHT22;2169;49.086;9.284;2023-06-14T07:28:00;21.70;40.10
4312;DHT22;2169;49.086;9.284;2023-06-14T07:30:27;21.80;39.50
4312;DHT22;2169;49.086;9.284;2023-06-14T07:32:55;22.00;39.30
4312;DHT22;2169;49.086;9.284;2023-06-14T07:35:22;22.00;39.00
4312;DHT22;2169;49.086;9.284;2023-06-14T07:37:49;22.10;38.90
4312;DHT22;2169;49.086;9.284;2023-06-14T07:40:15;22.20;38.80
4312;DHT22;2169;49.086;9.284;2023-06-14T07:42:44;22.30;38.70
4312;DHT22;2169;49.086;9.284;2023-06-14T07:47:39;22.50;38.50
4312;DHT22;2169;49.086;9.284;2023-06-14T07:50:06;22.60;38.40
4312;DHT22;2169;49.086;9.284;2023-06-14T07:52:33;22.70;38.10
4312;DHT22;2169;49.086;9.284;2023-06-14T07:55:00;22.80;37.90
4312;DHT22;2169;49.086;9.284;2023-06-14T07:57:27;23.00;37.90
4312;DHT22;2169;49.086;9.284;2023-06-14T07:59:58;23.10;37.50
4312;DHT22;2169;49.086;9.284;2023-06-14T08:02:24;23.20;37.40
4312;DHT22;2169;49.086;9.284;2023-06-14T08:04:51;23.20;37.20
4312;DHT22;2169;49.086;9.284;2023-06-14T08:07:18;23.30;37.10
4312;DHT22;2169;49.086;9.284;2023-06-14T08:09:45;23.30;36.90
4312;DHT22;2169;49.086;9.284;2023-06-14T08:12:12;23.40;36.90
4312;DHT22;2169;49.086;9.284;2023-06-14T08:14:39;23.50;36.80
4312;DHT22;2169;49.086;9.284;2023-06-14T08:17:07;23.60;36.70
4312;DHT22;2169;49.086;9.284;2023-06-14T08:19:34;23.70;36.40
4312;DHT22;2169;49.086;9.284;2023-06-14T08:22:02;23.90;36.00
4312;DHT22;2169;49.086;9.284;2023-06-14T08:24:29;23.90;35.70
4312;DHT22;2169;49.086;9.284;2023-06-14T08:26:57;24.00;35.70
4312;DHT22;2169;49.086;9.284;2023-06-14T08:29:26;24.10;35.60
4312;DHT22;2169;49.086;9.284;2023-06-14T08:31:54;24.20;35.50
4312;DHT22;2169;49.086;9.284;2023-06-14T08:34:23;24.30;35.50
4312;DHT22;2169;49.086;9.284;2023-06-14T08:36:50;24.40;35.30
4312;DHT22;2169;49.086;9.284;2023-06-14T08:39:17;24.50;35.20
4312;DHT22;2169;49.086;9.284;2023-06-14T08:41:45;24.60;35.20
4312;DHT22;2169;49.086;9.284;2023-06-14T08:44:12;24.70;35.10
4312;DHT22;2169;49.086;9.284;2023-06-14T08:46:40;24.80;35.00
4312;DHT22;2169;49.086;9.284;2023-06-14T08:49:08;24.90;35.10
4312;DHT22;2169;49.086;9.284;2023-06-14T08:51:39;25.00;34.80
4312;DHT22;2169;49.086;9.284;2023-06-14T08:54:06;25.10;34.70
4312;DHT22;2169;49.086;9.284;2023-06-14T08:56:33;25.10;34.40
4312;DHT22;2169;49.086;9.284;2023-06-14T08:59:01;25.00;33.90
4312;DHT22;2169;49.086;9.284;2023-06-14T09:01:30;25.00;34.10
4312;DHT22;2169;49.086;9.284;2023-06-14T09:03:57;25.00;34.10
4312;DHT22;2169;49.086;9.284;2023-06-14T09:06:24;25.20;34.10
4312;DHT22;2169;49.086;9.284;2023-06-14T09:08:55;25.30;34.00
4312;DHT22;2169;49.086;9.284;2023-06-14T09:11:23;25.40;33.70
4312;DHT22;2169;49.086;9.284;2023-06-14T09:13:51;25.50;33.70
4312;DHT22;2169;49.086;9.284;2023-06-14T09:16:18;25.70;33.70
4312;DHT22;2169;49.086;9.284;2023-06-14T09:18:46;25.90;33.40
4312;DHT22;2169;49.086;9.284;2023-06-14T09:21:14;25.90;33.10
4312;DHT22;2169;49.086;9.284;2023-06-14T09:23:42;26.10;33.20
4312;DHT22;2169;49.086;9.284;2023-06-14T09:26:12;26.20;32.90
4312;DHT22;2169;49.086;9.284;2023-06-14T09:28:41;26.40;32.80
4312;DHT22;2169;49.086;9.284;2023-06-14T09:31:09;26.50;32.60
4312;DHT22;2169;49.086;9.284;2023-06-14T09:33:37;26.50;32.20
4312;DHT22;2169;49.086;9.284;2023-06-14T09:36:04;26.60;32.00
4312;DHT22;2169;49.086;9.284;2023-06-14T09:38:30;26.70;31.80
4312;DHT22;2169;49.086;9.284;2023-06-14T09:40:58;26.80;31.80
4312;DHT22;2169;49.086;9.284;2023-06-14T09:43:26;26.90;31.50
4312;DHT22;2169;49.086;9.284;2023-06-14T09:45:54;27.10;31.30
4312;DHT22;2169;49.086;9.284;2023-06-14T09:48:21;27.10;30.90
4312;DHT22;2169;49.086;9.284;2023-06-14T09:50:50;27.20;31.10
4312;DHT22;2169;49.086;9.284;2023-06-14T09:53:20;27.20;30.50
4312;DHT22;2169;49.086;9.284;2023-06-14T09:55:49;27.30;30.20
4312;DHT22;2169;49.086;9.284;2023-06-14T09:58:16;27.30;29.90
4312;DHT22;2169;49.086;9.284;2023-06-14T10:00:47;27.30;29.80
4312;DHT22;2169;49.086;9.284;2023-06-14T10:03:21;27.30;29.80
4312;DHT22;2169;49.086;9.284;2023-06-14T10:05:50;27.40;29.70
4312;DHT22;2169;49.086;9.284;2023-06-14T10:08:19;27.40;29.40
4312;DHT22;2169;49.086;9.284;2023-06-14T10:10:46;27.50;29.20
4312;DHT22;2169;49.086;9.284;2023-06-14T10:13:14;27.60;28.90
4312;DHT22;2169;49.086;9.284;2023-06-14T10:15:47;27.70;28.80
4312;DHT22;2169;49.086;9.284;2023-06-14T10:18:21;27.80;28.60
4312;DHT22;2169;49.086;9.284;2023-06-14T10:20:55;27.90;28.30
4312;DHT22;2169;49.086;9.284;2023-06-14T10:23:26;28.00;28.20
4312;DHT22;2169;49.086;9.284;2023-06-14T10:25:56;28.00;28.10
4312;DHT22;2169;49.086;9.284;2023-06-14T10:28:25;28.10;27.80
4312;DHT22;2169;49.086;9.284;2023-06-14T10:31:04;28.10;27.90
4312;DHT22;2169;49.086;9.284;2023-06-14T10:33:31;28.30;27.60
4312;DHT22;2169;49.086;9.284;2023-06-14T10:36:08;28.30;27.60
4312;DHT22;2169;49.086;9.284;2023-06-14T10:38:36;28.40;27.40
4312;DHT22;2169;49.086;9.284;2023-06-14T10:41:04;28.30;27.30
4312;DHT22;2169;49.086;9.284;2023-06-14T10:43:31;28.40;27.30
4312;DHT22;2169;49.086;9.284;2023-06-14T10:46:18;28.60;27.10
4312;DHT22;2169;49.086;9.284;2023-06-14T10:48:48;28.70;26.70
4312;DHT22;2169;49.086;9.284;2023-06-14T10:51:19;28.80;26.50
4312;DHT22;2169;49.086;9.284;2023-06-14T10:53:47;28.90;26.30
4312;DHT22;2169;49.086;9.284;2023-06-14T10:56:27;28.90;26.20
4312;DHT22;2169;49.086;9.284;2023-06-14T10:58:54;28.90;26.30
4312;DHT22;2169;49.086;9.284;2023-06-14T11:01:35;28.90;26.30
4312;DHT22;2169;49.086;9.284;2023-06-14T11:04:10;29.00;25.90
4312;DHT22;2169;49.086;9.284;2023-06-14T11:06:46;28.80;25.40
4312;DHT22;2169;49.086;9.284;2023-06-14T11:12:13;28.80;25.00
4312;DHT22;2169;49.086;9.284;2023-06-14T11:14:40;28.80;25.10
4312;DHT22;2169;49.086;9.284;2023-06-14T11:17:08;28.90;25.30
4312;DHT22;2169;49.086;9.284;2023-06-14T11:19:35;28.90;25.40
4312;DHT22;2169;49.086;9.284;2023-06-14T11:22:02;28.80;25.40
4312;DHT22;2169;49.086;9.284;2023-06-14T11:24:29;28.80;25.40
4312;DHT22;2169;49.086;9.284;2023-06-14T11:26:55;28.80;25.90
4312;DHT22;2169;49.086;9.284;2023-06-14T11:29:23;28.80;25.40
4312;DHT22;2169;49.086;9.284;2023-06-14T11:31:50;28.80;25.40
4312;DHT22;2169;49.086;9.284;2023-06-14T11:34:19;28.80;25.50
4312;DHT22;2169;49.086;9.284;2023-06-14T11:36:46;28.80;25.60
4312;DHT22;2169;49.086;9.284;2023-06-14T11:39:13;28.80;25.70
4312;DHT22;2169;49.086;9.284;2023-06-14T11:41:42;28.80;25.50
4312;DHT22;2169;49.086;9.284;2023-06-14T11:44:09;28.80;25.40
4312;DHT22;2169;49.086;9.284;2023-06-14T11:46:36;28.80;25.20
4312;DHT22;2169;49.086;9.284;2023-06-14T11:49:03;28.70;25.20
4312;DHT22;2169;49.086;9.284;2023-06-14T11:51:32;28.60;25.20
4312;DHT22;2169;49.086;9.284;2023-06-14T11:54:00;28.50;25.10
4312;DHT22;2169;49.086;9.284;2023-06-14T11:56:28;28.50;25.20
4312;DHT22;2169;49.086;9.284;2023-06-14T11:58:55;28.50;25.30
4312;DHT22;2169;49.086;9.284;2023-06-14T12:01:22;28.50;25.30
4312;DHT22;2169;49.086;9.284;2023-06-14T12:03:49;28.50;25.10
4312;DHT22;2169;49.086;9.284;2023-06-14T12:06:26;28.50;25.30
4312;DHT22;2169;49.086;9.284;2023-06-14T12:08:55;28.60;25.30
4312;DHT22;2169;49.086;9.284;2023-06-14T12:11:22;28.50;24.90
4312;DHT22;2169;49.086;9.284;2023-06-14T12:13:49;28.40;25.00
4312;DHT22;2169;49.086;9.284;2023-06-14T12:16:16;28.50;25.30
4312;DHT22;2169;49.086;9.284;2023-06-14T12:18:43;28.60;25.30
4312;DHT22;2169;49.086;9.284;2023-06-14T12:21:11;28.80;25.30
4312;DHT22;2169;49.086;9.284;2023-06-14T12:23:45;28.80;25.30
4312;DHT22;2169;49.086;9.284;2023-06-14T12:26:14;28.80;25.30
4312;DHT22;2169;49.086;9.284;2023-06-14T12:28:42;28.80;25.50
4312;DHT22;2169;49.086;9.284;2023-06-14T12:31:10;28.70;25.50
4312;DHT22;2169;49.086;9.284;2023-06-14T12:33:38;28.70;25.60
4312;DHT22;2169;49.086;9.284;2023-06-14T12:36:05;28.70;25.40
4312;DHT22;2169;49.086;9.284;2023-06-14T12:38:33;28.80;25.40
4312;DHT22;2169;49.086;9.284;2023-06-14T12:40:59;28.80;25.50
4312;DHT22;2169;49.086;9.284;2023-06-14T12:43:28;28.80;25.50
4312;DHT22;2169;49.086;9.284;2023-06-14T12:45:55;28.80;25.50
4312;DHT22;2169;49.086;9.284;2023-06-14T12:48:22;28.80;25.60
4312;DHT22;2169;49.086;9.284;2023-06-14T12:50:49;28.90;25.60
4312;DHT22;2169;49.086;9.284;2023-06-14T12:53:15;28.80;25.50
4312;DHT22;2169;49.086;9.284;2023-06-14T12:55:42;28.70;25.50
4312;DHT22;2169;49.086;9.284;2023-06-14T12:58:09;28.60;25.40
4312;DHT22;2169;49.086;9.284;2023-06-14T13:00:39;28.50;25.40
4312;DHT22;2169;49.086;9.284;2023-06-14T13:03:06;28.60;25.50
4312;DHT22;2169;49.086;9.284;2023-06-14T13:05:32;28.60;25.40
4312;DHT22;2169;49.086;9.284;2023-06-14T13:07:59;28.60;25.30
4312;DHT22;2169;49.086;9.284;2023-06-14T13:10:26;28.60;25.30
4312;DHT22;2169;49.086;9.284;2023-06-14T13:12:53;28.70;25.30
4312;DHT22;2169;49.086;9.284;2023-06-14T13:15:20;28.70;25.30
4312;DHT22;2169;49.086;9.284;2023-06-14T13:17:48;28.80;25.40
4312;DHT22;2169;49.086;9.284;2023-06-14T13:20:15;28.80;25.20
4312;DHT22;2169;49.086;9.284;2023-06-14T13:22:42;28.80;25.30
4312;DHT22;2169;49.086;9.284;2023-06-14T13:25:09;28.80;25.20
4312;DHT22;2169;49.086;9.284;2023-06-14T13:27:36;28.70;25.20
4312;DHT22;2169;49.086;9.284;2023-06-14T13:30:03;28.70;25.20
4312;DHT22;2169;49.086;9.284;2023-06-14T13:32:31;28.70;25.30
4312;DHT22;2169;49.086;9.284;2023-06-14T13:34:59;28.80;25.20
4312;DHT22;2169;49.086;9.284;2023-06-14T13:37:26;28.80;25.10
4312;DHT22;2169;49.086;9.284;2023-06-14T13:39:53;28.80;25.00
4312;DHT22;2169;49.086;9.284;2023-06-14T13:42:19;28.80;25.10
4312;DHT22;2169;49.086;9.284;2023-06-14T13:44:46;28.80;25.00
4312;DHT22;2169;49.086;9.284;2023-06-14T13:47:13;28.80;25.00
4312;DHT22;2169;49.086;9.284;2023-06-14T13:49:40;28.90;25.00
4312;DHT22;2169;49.086;9.284;2023-06-14T13:52:08;29.00;24.90
4312;DHT22;2169;49.086;9.284;2023-06-14T13:54:35;29.00;24.80
4312;DHT22;2169;49.086;9.284;2023-06-14T13:57:02;29.10;24.70
4312;DHT22;2169;49.086;9.284;2023-06-14T13:59:29;29.10;24.60
4312;DHT22;2169;49.086;9.284;2023-06-14T14:01:56;29.20;24.70
4312;DHT22;2169;49.086;9.284;2023-06-14T14:04:23;29.20;24.70
4312;DHT22;2169;49.086;9.284;2023-06-14T14:06:50;29.10;24.70
4312;DHT22;2169;49.086;9.284;2023-06-14T14:09:18;29.10;24.80
4312;DHT22;2169;49.086;9.284;2023-06-14T14:11:44;29.00;24.90
4312;DHT22;2169;49.086;9.284;2023-06-14T14:14:11;29.00;25.00
4312;DHT22;2169;49.086;9.284;2023-06-14T14:16:38;29.00;25.10
4312;DHT22;2169;49.086;9.284;2023-06-14T14:19:05;29.00;24.90
4312;DHT22;2169;49.086;9.284;2023-06-14T14:21:32;28.90;24.80
4312;DHT22;2169;49.086;9.284;2023-06-14T14:23:59;28.90;24.80
4312;DHT22;2169;49.086;9.284;2023-06-14T14:26:27;28.90;24.80
4312;DHT22;2169;49.086;9.284;2023-06-14T14:28:54;28.80;24.80
4312;DHT22;2169;49.086;9.284;2023-06-14T14:31:21;28.80;24.80
4312;DHT22;2169;49.086;9.284;2023-06-14T14:33:47;28.70;24.90
4312;DHT22;2169;49.086;9.284;2023-06-14T14:36:14;28.70;25.00
4312;DHT22;2169;49.086;9.284;2023-06-14T14:38:41;28.60;24.90
4312;DHT22;2169;49.086;9.284;2023-06-14T14:41:08;28.60;25.00
4312;DHT22;2169;49.086;9.284;2023-06-14T14:43:36;28.50;24.90
4312;DHT22;2169;49.086;9.284;2023-06-14T14:46:04;28.50;25.10
4312;DHT22;2169;49.086;9.284;2023-06-14T14:48:30;28.50;25.20
4312;DHT22;2169;49.086;9.284;2023-06-14T14:50:57;28.60;25.20
4312;DHT22;2169;49.086;9.284;2023-06-14T14:53:24;28.60;24.90
4312;DHT22;2169;49.086;9.284;2023-06-14T14:55:51;28.50;24.90
4312;DHT22;2169;49.086;9.284;2023-06-14T14:58:17;28.50;24.80
4312;DHT22;2169;49.086;9.284;2023-06-14T15:00:47;28.60;24.80
4312;DHT22;2169;49.086;9.284;2023-06-14T15:03:14;28.60;24.70
4312;DHT22;2169;49.086;9.284;2023-06-14T15:05:41;28.60;24.80
4312;DHT22;2169;49.086;9.284;2023-06-14T15:08:07;28.60;24.90
4312;DHT22;2169;49.086;9.284;2023-06-14T15:10:37;28.50;24.90
4312;DHT22;2169;49.086;9.284;2023-06-14T15:13:06;28.50;25.00
4312;DHT22;2169;49.086;9.284;2023-06-14T15:15:33;28.50;25.10
4312;DHT22;2169;49.086;9.284;2023-06-14T15:18:01;28.50;25.20
4312;DHT22;2169;49.086;9.284;2023-06-14T15:20:28;28.50;25.30
4312;DHT22;2169;49.086;9.284;2023-06-14T15:22:55;28.40;25.30
4312;DHT22;2169;49.086;9.284;2023-06-14T15:25:25;28.50;25.50
4312;DHT22;2169;49.086;9.284;2023-06-14T15:27:52;28.50;25.60
4312;DHT22;2169;49.086;9.284;2023-06-14T15:30:18;28.50;25.70
4312;DHT22;2169;49.086;9.284;2023-06-14T15:32:45;28.50;25.70
4312;DHT22;2169;49.086;9.284;2023-06-14T15:35:16;28.60;25.90
4312;DHT22;2169;49.086;9.284;2023-06-14T15:37:42;28.60;25.80
4312;DHT22;2169;49.086;9.284;2023-06-14T15:40:10;28.60;25.90
4312;DHT22;2169;49.086;9.284;2023-06-14T15:42:37;28.60;26.00
4312;DHT22;2169;49.086;9.284;2023-06-14T15:45:04;28.60;26.00
4312;DHT22;2169;49.086;9.284;2023-06-14T15:47:31;28.60;25.90
4312;DHT22;2169;49.086;9.284;2023-06-14T15:49:58;28.60;25.90
4312;DHT22;2169;49.086;9.284;2023-06-14T15:52:26;28.50;25.90
4312;DHT22;2169;49.086;9.284;2023-06-14T15:54:53;28.40;26.00
4312;DHT22;2169;49.086;9.284;2023-06-14T15:57:19;28.40;26.00
4312;DHT22;2169;49.086;9.284;2023-06-14T15:59:46;28.40;26.10
4312;DHT22;2169;49.086;9.284;2023-06-14T16:02:13;28.40;26.10
4312;DHT22;2169;49.086;9.284;2023-06-14T16:04:40;28.40;26.20
4312;DHT22;2169;49.086;9.284;2023-06-14T16:07:06;28.50;26.20
4312;DHT22;2169;49.086;9.284;2023-06-14T16:09:35;28.40;26.10
4312;DHT22;2169;49.086;9.284;2023-06-14T16:12:01;28.30;26.20